Time;durP1;ratioP1;P1;durP2;ratioP2;P2;SDS_P1;SDS_P2;PMS_P1;PMS_P2;Temp;Humidity;BMP_temperature;BMP_pressure;BME280_temperature;BME280_humidity;BME280_pressure;Samples;Min_cycle;Max_cycle;Signal;HPM_P1;HPM_P2
2022/04/12 00:01:10;;;;;;;2.73;2.00;;;7.40;1.00;8.10;93758.00;;;;7396179;19;20613;-77
2022/04/12 00:03:42;;;;;;;3.03;2.20;;;7.40;1.00;8.20;93754.00;;;;7398272;19;20143;-76
2022/04/12 00:06:16;;;;;;;5.67;2.60;;;7.40;1.00;8.20;93744.00;;;;7397118;19;20608;-76
2022/04/12 00:08:43;;;;;;;2.73;1.87;;;7.40;1.00;8.10;93745.00;;;;7397396;19;20129;-76
2022/04/12 00:11:12;;;;;;;3.00;2.20;;;7.40;1.00;8.20;93746.00;;;;7393863;19;20628;-77
2022/04/12 00:13:48;;;;;;;3.43;2.17;;;7.40;1.00;8.20;93732.00;;;;7397191;19;20625;-78
2022/04/12 00:16:25;;;;;;;4.40;2.10;;;7.50;1.00;8.20;93773.00;;;;7395143;19;20141;-77
2022/04/12 00:19:04;;;;;;;2.80;2.17;;;7.50;1.00;8.40;93747.00;;;;7397622;19;20125;-79
2022/04/12 00:21:35;;;;;;;4.33;2.57;;;7.50;1.00;8.40;93737.00;;;;7395686;19;20607;-77
2022/04/12 00:24:09;;;;;;;3.80;2.50;;;7.60;1.00;8.50;93762.00;;;;7396745;19;20512;-77
2022/04/12 00:26:38;;;;;;;4.63;2.37;;;7.70;1.00;8.40;93746.00;;;;7396299;19;20137;-77
2022/04/12 00:29:05;;;;;;;4.20;2.37;;;7.70;1.00;8.40;93746.00;;;;7395671;19;20129;-76
2022/04/12 00:31:39;;;;;;;2.73;2.10;;;7.70;1.00;8.30;93737.00;;;;7395908;19;20146;-76
2022/04/12 00:34:06;;;;;;;3.30;2.07;;;7.60;1.00;8.40;93742.00;;;;7398634;19;20608;-76
2022/04/12 00:36:35;;;;;;;4.47;2.37;;;7.60;1.00;8.50;93738.00;;;;7394242;19;20137;-76
2022/04/12 00:39:09;;;;;;;3.73;2.70;;;7.70;1.00;8.50;93750.00;;;;7395351;19;20140;-77
2022/04/12 00:41:36;;;;;;;4.13;2.20;;;7.70;1.00;8.50;93728.00;;;;7395938;19;20133;-76
2022/04/12 00:44:03;;;;;;;4.67;2.60;;;7.80;1.00;8.60;93733.00;;;;7395679;19;20140;-77
2022/04/12 00:46:40;;;;;;;4.57;2.43;;;7.80;1.00;8.60;93727.00;;;;7395309;19;20133;-77
2022/04/12 00:49:10;;;;;;;3.20;2.40;;;7.80;1.00;8.60;93729.00;;;;7395476;19;20176;-77
2022/04/12 00:51:45;;;;;;;3.70;2.57;;;7.80;1.00;8.60;93698.00;;;;7394057;19;20141;-78
2022/04/12 00:54:12;;;;;;;2.90;2.30;;;7.80;1.00;8.50;93746.00;;;;7395000;19;20129;-77
2022/04/12 00:56:39;;;;;;;2.87;2.57;;;7.80;1.00;8.50;93736.00;;;;7395342;19;20129;-77
2022/04/12 00:59:13;;;;;;;5.90;3.13;;;7.80;1.00;8.60;93744.00;;;;7395178;19;20141;-77
2022/04/12 01:01:41;;;;;;;3.23;2.87;;;7.80;1.00;8.50;93757.00;;;;7395891;19;20125;-80
2022/04/12 01:04:10;;;;;;;3.53;2.60;;;7.80;1.00;8.50;93742.00;;;;7394019;19;20133;-80
2022/04/12 01:06:44;;;;;;;3.00;2.43;;;7.80;1.00;8.50;93750.00;;;;7394726;19;20354;-80
2022/04/12 01:09:12;;;;;;;4.33;2.33;;;7.80;1.00;8.50;93755.00;;;;7394266;19;20146;-80
2022/04/12 01:11:48;;;;;;;3.47;2.70;;;7.80;1.00;8.30;93734.00;;;;7392282;19;20197;-79
2022/04/12 01:14:25;;;;;;;4.90;2.73;;;7.70;1.00;8.40;93733.00;;;;7394081;19;20487;-79
2022/04/12 01:16:52;;;;;;;3.77;2.50;;;7.70;1.00;8.50;93712.00;;;;7393616;19;20196;-80
2022/04/12 01:19:19;;;;;;;4.43;2.90;;;7.80;1.00;8.40;93720.00;;;;7394996;19;20161;-79
2022/04/12 01:22:03;;;;;;;4.23;2.97;;;7.80;1.00;8.30;93715.00;;;;7394576;19;20193;-80
2022/04/12 01:24:32;;;;;;;4.13;2.40;;;7.70;1.00;8.20;93738.00;;;;7395488;19;20163;-80
2022/04/12 01:27:06;;;;;;;3.53;2.50;;;7.60;1.00;8.00;93732.00;;;;7394095;19;20141;-80
2022/04/12 01:29:37;;;;;;;3.30;2.60;;;7.50;1.00;8.10;93717.00;;;;7394459;19;20135;-79
2022/04/12 01:32:08;;;;;;;3.67;2.87;;;7.40;1.00;8.30;93724.00;;;;7394265;19;20137;-80
2022/04/12 01:34:44;;;;;;;5.17;2.50;;;7.50;1.00;8.20;93705.00;;;;7393523;19;20165;-79
2022/04/12 01:37:11;;;;;;;2.63;2.20;;;7.50;1.00;8.10;93745.00;;;;7393691;19;20149;-79
2022/04/12 01:39:38;;;;;;;4.33;2.67;;;7.40;1.00;7.90;93739.00;;;;7394686;19;20140;-80
2022/04/12 01:42:12;;;;;;;4.67;2.60;;;7.30;1.00;7.90;93722.00;;;;7393812;19;20133;-79
2022/04/12 01:44:39;;;;;;;2.73;2.40;;;7.20;1.00;7.70;93710.00;;;;7392819;19;20163;-80
2022/04/12 01:47:06;;;;;;;4.90;2.40;;;7.10;1.00;7.70;93710.00;;;;7393699;19;20153;-79
2022/04/12 01:49:43;;;;;;;5.77;2.80;;;7.00;1.00;7.80;93707.00;;;;7393228;19;20153;-79
2022/04/12 01:52:10;;;;;;;3.37;2.53;;;7.10;1.00;7.90;93720.00;;;;7392755;19;20145;-80
2022/04/12 01:54:37;;;;;;;3.53;2.70;;;7.20;1.00;8.10;93706.00;;;;7393445;19;20163;-79
2022/04/12 01:57:11;;;;;;;3.80;2.53;;;7.20;1.00;8.30;93711.00;;;;7392680;19;20170;-80
2022/04/12 01:59:39;;;;;;;3.07;2.43;;;7.40;1.00;8.30;93698.00;;;;7392483;19;20137;-79
2022/04/12 02:02:06;;;;;;;3.60;2.50;;;7.50;1.00;8.60;93693.00;;;;7392519;19;20147;-80
2022/04/12 02:04:40;;;;;;;3.03;2.37;;;7.70;1.00;8.60;93697.00;;;;7393552;19;20144;-79
2022/04/12 02:07:07;;;;;;;3.67;2.30;;;7.80;1.00;8.70;93723.00;;;;7393147;19;20141;-80
2022/04/12 02:09:37;;;;;;;4.33;2.20;;;7.90;1.00;8.70;93687.00;;;;7392189;19;20731;-79
2022/04/12 02:12:11;;;;;;;3.57;2.33;;;8.00;1.00;8.70;93719.00;;;;7392826;19;20207;-80
2022/04/12 02:14:38;;;;;;;4.37;2.67;;;8.00;1.00;8.60;93693.00;;;;7394261;19;20149;-80
2022/04/12 02:17:05;;;;;;;5.10;2.87;;;8.00;1.00;8.60;93705.00;;;;7392745;19;20446;-79
2022/04/12 02:19:40;;;;;;;2.97;2.50;;;7.90;1.00;8.70;93728.00;;;;7393574;19;20986;-79
2022/04/12 02:22:07;;;;;;;5.10;2.40;;;8.00;1.00;8.60;93707.00;;;;7394387;19;20141;-78
2022/04/12 02:24:34;;;;;;;5.23;2.60;;;8.00;1.00;8.60;93714.00;;;;7391969;19;20208;-78
2022/04/12 02:27:08;;;;;;;2.80;2.33;;;7.90;1.00;8.50;93704.00;;;;7392580;19;20152;-79
2022/04/12 02:29:36;;;;;;;3.17;2.30;;;7.90;1.00;8.50;93693.00;;;;7391889;19;20603;-78
2022/04/12 02:32:04;;;;;;;2.70;2.37;;;7.80;1.00;8.50;93697.00;;;;7393535;19;20129;-78
2022/04/12 02:34:39;;;;;;;5.13;2.50;;;7.80;1.00;8.60;93709.00;;;;7391614;19;20196;-80
2022/04/12 02:37:11;;;;;;;3.83;2.30;;;7.80;1.00;8.50;93691.00;;;;7390353;19;20132;-79
2022/04/12 02:39:49;;;;;;;3.17;2.47;;;7.80;1.00;8.60;93685.00;;;;7392076;19;20136;-80
2022/04/12 02:42:17;;;;;;;4.57;2.40;;;7.90;1.00;8.60;93666.00;;;;7391556;19;20149;-80
2022/04/12 02:44:44;;;;;;;3.47;2.80;;;7.90;1.00;8.60;93704.00;;;;7392502;19;20128;-80
2022/04/12 02:47:28;;;;;;;4.93;2.73;;;7.90;1.00;8.60;93709.00;;;;7391268;19;20140;-79
2022/04/12 02:49:57;;;;;;;4.27;2.73;;;7.90;1.00;8.60;93695.00;;;;7391464;19;20543;-78
2022/04/12 02:52:31;;;;;;;3.73;2.40;;;7.90;1.00;8.50;93664.00;;;;7393389;19;20124;-79
2022/04/12 02:55:01;;;;;;;4.57;2.53;;;7.90;1.00;8.50;93700.00;;;;7390977;19;20144;-78
2022/04/12 02:57:28;;;;;;;6.93;3.20;;;7.80;1.00;8.60;93686.00;;;;7389539;19;20553;-79
2022/04/12 03:00:04;;;;;;;6.37;2.30;;;7.90;1.00;8.60;93679.00;;;;7391917;19;20141;-78
2022/04/12 03:02:31;;;;;;;2.60;2.23;;;7.90;1.00;8.70;93693.00;;;;7391486;19;20141;-79
2022/04/12 03:04:58;;;;;;;3.93;2.33;;;8.00;1.00;8.50;93681.00;;;;7390062;19;20158;-79
2022/04/12 03:07:35;;;;;;;5.17;2.50;;;7.90;1.00;8.50;93697.00;;;;7390854;19;20171;-78
2022/04/12 03:10:10;;;;;;;2.77;2.40;;;7.80;1.00;8.70;93694.00;;;;7390297;19;20176;-79
2022/04/12 03:12:50;;;;;;;6.53;2.73;;;7.90;1.00;8.50;93691.00;;;;7391087;19;20133;-79
2022/04/12 03:15:17;;;;;;;5.83;2.40;;;7.80;1.00;8.40;93688.00;;;;7389590;19;20551;-79
2022/04/12 03:17:51;;;;;;;3.63;2.50;;;7.70;1.00;8.50;93668.00;;;;7389104;19;20141;-79
2022/04/12 03:20:18;;;;;;;6.17;2.60;;;7.70;1.00;8.50;93683.00;;;;7392497;19;20129;-78
2022/04/12 03:22:47;;;;;;;3.70;2.30;;;7.70;1.00;8.50;93671.00;;;;7390500;19;20137;-79
2022/04/12 03:25:24;;;;;;;5.17;2.90;;;7.80;1.00;8.60;93700.00;;;;7389958;19;20208;-78
2022/04/12 03:27:51;;;;;;;3.73;2.93;;;7.80;1.00;8.70;93682.00;;;;7390020;19;20212;-78
2022/04/12 03:30:23;;;;;;;4.10;2.83;;;7.90;1.00;8.70;93655.00;;;;7391267;19;20148;-79
2022/04/12 03:32:58;;;;;;;3.03;2.63;;;8.00;1.00;8.70;93689.00;;;;7390630;19;20127;-79
2022/04/12 03:35:25;;;;;;;3.80;2.60;;;8.00;1.00;8.80;93679.00;;;;7389657;19;20139;-78
2022/04/12 03:37:52;;;;;;;4.83;2.90;;;8.00;1.00;8.80;93668.00;;;;7388504;19;20137;-79
2022/04/12 03:40:33;;;;;;;3.67;2.80;;;8.00;1.00;8.60;93688.00;;;;7390929;19;20149;-80
2022/04/12 03:43:07;;;;;;;5.53;2.60;;;7.90;1.00;8.80;93711.00;;;;7391260;19;20579;-79
2022/04/12 03:45:44;;;;;;;3.83;2.67;;;8.00;1.00;8.80;93678.00;;;;7389603;19;20614;-79
2022/04/12 03:48:11;;;;;;;3.93;2.63;;;8.00;1.00;8.70;93657.00;;;;7391284;19;20600;-79
2022/04/12 03:50:38;;;;;;;3.97;2.80;;;8.00;1.00;8.70;93689.00;;;;7390741;19;20153;-79
2022/04/12 03:53:15;;;;;;;2.97;2.67;;;8.00;1.00;8.70;93701.00;;;;7389908;19;20583;-80
2022/04/12 03:55:46;;;;;;;3.93;2.80;;;8.00;1.00;8.60;93686.00;;;;7389162;19;20616;-79
2022/04/12 03:58:20;;;;;;;4.67;2.50;;;8.00;1.00;8.70;93705.00;;;;7387242;19;20709;-79
2022/04/12 04:00:55;;;;;;;3.07;2.80;;;8.00;1.00;8.70;93667.00;;;;7390176;19;20141;-79
2022/04/12 04:03:29;;;;;;;4.40;2.80;;;8.00;1.00;8.70;93690.00;;;;7389759;19;20137;-79
2022/04/12 04:05:59;;;;;;;5.83;2.70;;;8.00;1.00;8.80;93689.00;;;;7388922;19;20634;-79
2022/04/12 04:08:26;;;;;;;3.57;2.50;;;8.00;1.00;8.80;93704.00;;;;7389481;19;20150;-79
2022/04/12 04:11:07;;;;;;;3.40;2.60;;;8.10;1.00;8.60;93716.00;;;;7390211;19;20612;-79
2022/04/12 04:13:36;;;;;;;2.80;2.50;;;8.00;1.00;8.60;93697.00;;;;7389047;19;20200;-79
2022/04/12 04:16:12;;;;;;;2.63;2.20;;;8.00;1.00;8.60;93687.00;;;;7388940;19;20133;-78
2022/04/12 04:18:39;;;;;;;3.50;2.60;;;7.90;1.00;8.70;93699.00;;;;7388310;19;20121;-78
2022/04/12 04:21:08;;;;;;;5.70;2.63;;;8.00;1.00;8.50;93697.00;;;;7390646;19;20122;-79
2022/04/12 04:23:47;;;;;;;2.87;2.20;;;7.90;1.00;8.70;93693.00;;;;7388842;19;20157;-79
2022/04/12 04:26:17;;;;;;;3.37;2.50;;;7.90;1.00;8.60;93674.00;;;;7391951;19;20507;-79
2022/04/12 04:28:54;;;;;;;3.87;2.40;;;7.90;1.00;8.60;93667.00;;;;7397591;19;20136;-79
2022/04/12 04:31:21;;;;;;;6.53;2.97;;;7.90;1.00;8.60;93697.00;;;;7396769;19;20145;-79
2022/04/12 04:33:55;;;;;;;7.77;2.70;;;7.90;1.00;8.70;93672.00;;;;7396073;19;20168;-79
2022/04/12 04:36:29;;;;;;;3.13;2.57;;;8.00;1.00;8.80;93658.00;;;;7389160;19;20549;-79
2022/04/12 04:38:56;;;;;;;3.20;2.40;;;8.00;1.00;8.80;93695.00;;;;7397559;19;20140;-78
2022/04/12 04:41:25;;;;;;;3.37;2.93;;;8.00;1.00;8.80;93673.00;;;;7393337;19;20149;-78
2022/04/12 04:44:00;;;;;;;2.77;2.27;;;7.90;1.00;8.80;93676.00;;;;7394593;19;20136;-78
2022/04/12 04:46:28;;;;;;;3.70;2.30;;;8.00;1.00;8.80;93706.00;;;;7393816;19;20161;-77
2022/04/12 04:48:55;;;;;;;3.13;2.30;;;8.00;1.00;8.80;93686.00;;;;7396594;19;20137;-78
2022/04/12 04:51:29;;;;;;;4.33;2.70;;;8.10;1.00;8.80;93678.00;;;;7396009;19;20163;-78
2022/04/12 04:53:58;;;;;;;3.33;2.23;;;8.10;1.00;8.70;93675.00;;;;7392989;19;20477;-78
2022/04/12 04:56:27;;;;;;;3.23;2.37;;;8.10;1.00;8.70;93691.00;;;;7395653;19;20158;-77
2022/04/12 04:59:01;;;;;;;3.07;2.10;;;8.00;1.00;8.80;93694.00;;;;7396417;19;20165;-78
2022/04/12 05:01:28;;;;;;;3.37;2.33;;;8.00;1.00;8.80;93680.00;;;;7395162;19;20117;-77
2022/04/12 05:03:55;;;;;;;4.70;2.50;;;8.00;1.00;8.90;93666.00;;;;7394366;19;20150;-77
2022/04/12 05:06:32;;;;;;;4.63;2.20;;;8.10;1.00;9.00;93686.00;;;;7394922;19;20210;-76
2022/04/12 05:08:59;;;;;;;3.13;2.00;;;8.20;1.00;9.00;93683.00;;;;7396227;19;20133;-77
2022/04/12 05:11:28;;;;;;;4.03;2.50;;;8.20;1.00;9.10;93672.00;;;;7391689;19;20172;-77
2022/04/12 05:14:02;;;;;;;3.00;2.27;;;8.20;1.00;9.00;93691.00;;;;7393081;19;20136;-77
2022/04/12 05:16:33;;;;;;;4.13;2.00;;;8.30;1.00;9.10;93683.00;;;;7394660;19;20630;-77
2022/04/12 05:19:00;;;;;;;6.17;2.47;;;8.30;1.00;9.50;93686.00;;;;7393290;19;20141;-77
2022/04/12 05:21:34;;;;;;;3.73;2.00;;;8.50;1.00;9.70;93691.00;;;;7392951;19;20144;-77
2022/04/12 05:24:03;;;;;;;2.20;2.00;;;8.70;1.00;9.90;93676.00;;;;7394466;19;20455;-77
2022/04/12 05:26:31;;;;;;;3.03;2.03;;;8.90;1.00;10.10;93684.00;;;;7394406;19;20507;-76
2022/04/12 05:29:05;;;;;;;3.70;2.07;;;9.10;1.00;10.30;93697.00;;;;7396845;19;20479;-78
2022/04/12 05:31:32;;;;;;;2.37;1.73;;;9.30;1.00;10.30;93683.00;;;;7396985;19;20760;-77
2022/04/12 05:33:59;;;;;;;2.13;1.83;;;9.30;1.00;10.30;93693.00;;;;7393695;19;20129;-77
2022/04/12 05:36:33;;;;;;;4.20;1.90;;;9.40;1.00;10.30;93672.00;;;;7392594;19;20136;-77
2022/04/12 05:39:02;;;;;;;2.07;1.83;;;9.40;1.00;10.40;93667.00;;;;7391616;19;20129;-77
2022/04/12 05:41:32;;;;;;;2.33;1.80;;;9.50;1.00;10.50;93688.00;;;;7392614;19;20145;-77
2022/04/12 05:44:06;;;;;;;4.07;2.10;;;9.60;1.00;10.90;93693.00;;;;7391894;19;20470;-77
2022/04/12 05:46:33;;;;;;;3.95;2.00;;;9.70;1.00;11.10;93680.00;;;;7392497;19;20589;-77
2022/04/12 05:49:01;;;;;;;2.80;1.90;;;9.90;1.00;11.20;93681.00;;;;7393061;19;20164;-78
2022/04/12 05:51:37;;;;;;;3.15;2.05;;;10.00;1.00;11.40;93676.00;;;;7386789;19;20141;-76
2022/04/12 05:54:06;;;;;;;3.70;2.00;;;10.20;99.90;11.40;93676.00;;;;7394641;19;20153;-77
2022/04/12 05:56:33;;;;;;;3.65;1.88;;;10.40;99.90;11.80;93691.00;;;;7392468;19;20137;-77
2022/04/12 05:59:07;;;;;;;5.68;2.25;;;10.50;99.90;12.00;93681.00;;;;7390973;19;20145;-76
2022/04/12 06:01:34;;;;;;;2.60;1.67;;;10.70;1.00;11.90;93666.00;;;;7393863;19;20580;-77
2022/04/12 06:04:01;;;;;;;4.18;2.15;;;10.80;99.90;12.00;93685.00;;;;7394006;19;20188;-77
2022/04/12 06:06:41;;;;;;;2.28;1.73;;;10.90;99.90;12.10;93710.00;;;;7392563;19;20141;-77
2022/04/12 06:09:10;;;;;;;3.20;1.92;;;11.00;99.90;12.10;93705.00;;;;7391715;19;20514;-77
2022/04/12 06:11:53;;;;;;;2.15;1.50;;;11.00;99.90;12.20;93703.00;;;;7390628;19;20181;-77
2022/04/12 06:14:20;;;;;;;3.30;1.55;;;11.00;99.90;12.30;93699.00;;;;7388805;19;20603;-77
2022/04/12 06:16:54;;;;;;;2.28;1.60;;;11.10;99.90;12.60;93696.00;;;;7390996;19;20133;-77
2022/04/12 06:19:23;;;;;;;3.38;1.88;;;11.30;99.90;12.90;93677.00;;;;7391336;19;20629;-77
2022/04/12 06:21:50;;;;;;;1.90;1.55;;;11.40;99.90;13.20;93700.00;;;;7390132;19;20155;-76
2022/04/12 06:24:24;;;;;;;3.85;1.67;;;11.60;99.90;13.50;93710.00;;;;7393608;19;20151;-77
2022/04/12 06:26:54;;;;;;;2.45;1.50;;;11.80;99.90;13.80;93686.00;;;;7391276;19;20121;-77
2022/04/12 06:29:24;;;;;;;2.85;1.75;;;12.00;99.90;14.10;93709.00;;;;7391304;19;20140;-78
2022/04/12 06:32:00;;;;;;;3.13;1.67;;;12.30;99.90;14.20;93695.00;;;;7392759;19;20216;-77
2022/04/12 06:34:27;;;;;;;3.72;1.83;;;12.60;99.90;14.60;93707.00;;;;7391564;19;20494;-78
2022/04/12 06:36:54;;;;;;;2.13;1.45;;;12.80;99.90;14.90;93706.00;;;;7392842;19;20625;-77
2022/04/12 06:39:31;;;;;;;2.47;1.45;;;12.90;99.90;14.90;93712.00;;;;7390909;19;20143;-77
2022/04/12 06:42:00;;;;;;;2.70;1.75;;;13.10;99.90;14.80;93704.00;;;;7392472;19;20148;-77
2022/04/12 06:44:32;;;;;;;1.90;1.60;;;13.30;99.90;15.20;93691.00;;;;7392705;19;20124;-77
2022/04/12 06:47:08;;;;;;;5.53;1.90;;;13.40;99.90;15.50;93702.00;;;;7392524;19;20129;-78
2022/04/12 06:49:35;;;;;;;4.05;1.65;;;13.50;99.90;15.50;93720.00;;;;7389396;19;20148;-77
2022/04/12 06:52:06;;;;;;;2.00;1.38;;;13.60;99.90;15.90;93711.00;;;;7393032;19;20204;-78
2022/04/12 06:54:40;;;;;;;2.13;1.52;;;13.70;99.90;16.00;93717.00;;;;7390785;19;20610;-76
2022/04/12 06:57:08;;;;;;;2.78;1.60;;;13.90;99.90;15.80;93718.00;;;;7390220;19;20602;-77
2022/04/12 06:59:38;;;;;;;3.53;1.40;;;14.00;99.90;15.50;93727.00;;;;7391276;19;20208;-77
2022/04/12 07:02:13;;;;;;;2.47;1.30;;;14.00;99.90;15.60;93717.00;;;;7389646;19;20147;-77
2022/04/12 07:04:43;;;;;;;3.28;1.50;;;14.00;99.90;15.90;93709.00;;;;7386721;19;20140;-77
2022/04/12 07:07:10;;;;;;;2.28;1.40;;;13.90;99.90;16.00;93692.00;;;;7389742;19;20149;-77
2022/04/12 07:10:11;;;;;;;2.88;1.83;;;13.80;99.90;15.80;93720.00;;;;7387358;19;20174;-77
2022/04/12 07:12:46;;;;;;;1.80;1.60;;;13.90;99.90;15.80;93709.00;;;;7394603;19;20532;-78
2022/04/12 07:15:23;;;;;;;2.40;1.65;;;14.00;99.90;16.10;93737.00;;;;7391091;19;20140;-78
2022/04/12 07:17:50;;;;;;;2.25;1.38;;;14.10;99.90;16.20;93726.00;;;;7390962;19;20153;-78
2022/04/12 07:20:20;;;;;;;2.08;1.60;;;14.20;99.90;16.80;93730.00;;;;7389234;19;20135;-77
2022/04/12 07:22:56;;;;;;;1.85;1.35;;;14.40;99.90;17.00;93732.00;;;;7390225;19;20121;-78
2022/04/12 07:25:27;;;;;;;2.20;1.38;;;14.80;99.90;16.90;93733.00;;;;7391731;19;20452;-77
2022/04/12 07:28:01;;;;;;;1.40;1.30;;;15.00;99.90;17.20;93720.00;;;;7390873;19;20195;-77
2022/04/12 07:30:28;;;;;;;1.30;1.20;;;15.20;99.90;17.70;93730.00;;;;7388698;19;20129;-78
2022/04/12 07:33:15;;;;;;;2.25;1.45;;;15.30;99.90;17.50;93728.00;;;;7389926;19;20137;-77
2022/04/12 07:35:49;;;;;;;4.40;1.60;;;15.50;99.90;17.90;93714.00;;;;7389931;19;20141;-77
2022/04/12 07:38:16;;;;;;;2.20;1.38;;;15.70;99.90;17.60;93733.00;;;;7387938;19;20169;-77
2022/04/12 07:40:44;;;;;;;2.92;1.33;;;15.80;99.90;17.60;93741.00;;;;7389479;19;20141;-76
2022/04/12 07:43:18;;;;;;;2.08;1.40;;;15.90;99.90;17.60;93726.00;;;;7384386;19;20144;-77
2022/04/12 07:45:45;;;;;;;2.28;1.13;;;16.00;99.90;18.00;93743.00;;;;7390223;19;20599;-79
2022/04/12 07:48:12;;;;;;;1.20;1.10;;;15.90;99.90;18.20;93717.00;;;;7389563;19;20157;-78
2022/04/12 07:50:46;;;;;;;2.40;1.40;;;16.00;99.90;18.00;93733.00;;;;7389794;19;20143;-77
2022/04/12 07:53:13;;;;;;;1.70;1.23;;;16.10;99.90;17.70;93739.00;;;;7388058;19;20600;-78
2022/04/12 07:55:40;;;;;;;2.83;1.55;;;16.00;99.90;17.60;93729.00;;;;7389730;19;20584;-77
2022/04/12 07:58:15;;;;;;;2.08;1.38;;;15.80;99.90;17.90;93742.00;;;;7391367;19;20142;-78
2022/04/12 08:00:43;;;;;;;1.70;1.60;;;15.90;99.90;18.10;93744.00;;;;7393408;19;20136;-77
2022/04/12 08:03:10;;;;;;;2.58;1.50;;;16.00;99.90;18.20;93738.00;;;;7395500;19;20129;-78
2022/04/12 08:05:44;;;;;;;1.95;1.45;;;16.20;99.90;18.70;93724.00;;;;7398024;19;20501;-77
2022/04/12 08:08:11;;;;;;;3.20;1.70;;;16.50;99.90;19.00;93714.00;;;;7395024;19;20629;-78
2022/04/12 08:10:38;;;;;;;1.38;1.20;;;17.00;99.90;19.60;93748.00;;;;7393420;19;20193;-77
2022/04/12 08:13:12;;;;;;;2.13;1.27;;;17.40;99.90;20.20;93707.00;;;;7392528;19;20128;-78
2022/04/12 08:15:39;;;;;;;3.40;1.50;;;17.60;99.90;20.30;93746.00;;;;7396188;19;20149;-78
2022/04/12 08:18:09;;;;;;;3.05;1.40;;;18.00;99.90;20.40;93741.00;;;;7393489;19;20169;-79
2022/04/12 08:20:49;;;;;;;2.05;1.42;;;18.10;99.90;20.50;93696.00;;;;7395352;19;20141;-78
2022/04/12 08:23:20;;;;;;;2.35;1.40;;;18.20;99.90;19.90;93751.00;;;;7396002;19;20452;-79
2022/04/12 08:25:54;;;;;;;4.07;1.33;;;18.00;99.90;19.90;93730.00;;;;7397918;19;20580;-79
2022/04/12 08:28:21;;;;;;;2.83;1.42;;;18.00;99.90;19.60;93748.00;;;;7394558;19;20141;-77
2022/04/12 08:30:52;;;;;;;3.83;1.50;;;17.80;99.90;19.30;93745.00;;;;7395653;19;20140;-78
2022/04/12 08:33:26;;;;;;;3.08;1.30;;;17.60;99.90;18.90;93723.00;;;;7397233;19;20128;-78
2022/04/12 08:35:53;;;;;;;1.48;1.20;;;17.50;99.90;18.90;93741.00;;;;7393731;19;20141;-77
2022/04/12 08:38:20;;;;;;;3.03;1.38;;;17.40;99.90;18.80;93718.00;;;;7393297;19;20149;-76
2022/04/12 08:40:56;;;;;;;3.30;1.27;;;17.30;99.90;18.70;93729.00;;;;7395431;19;20191;-79
2022/04/12 08:43:29;;;;;;;2.65;1.25;;;17.10;99.90;19.20;93711.00;;;;7395215;19;20125;-77
2022/04/12 08:46:05;;;;;;;1.73;1.13;;;17.10;99.90;19.90;93737.00;;;;7395806;19;20125;-79
2022/04/12 08:48:34;;;;;;;2.33;1.33;;;17.40;99.90;20.60;93729.00;;;;7393024;19;20125;-79
2022/04/12 08:51:05;;;;;;;2.08;1.20;;;17.80;99.90;20.60;93731.00;;;;7395127;19;20237;-80
2022/04/12 08:53:38;;;;;;;2.70;1.30;;;17.90;99.90;21.30;93740.00;;;;7394563;19;20545;-78
2022/04/12 08:56:06;;;;;;;1.45;1.10;;;18.30;99.90;21.40;93727.00;;;;7393755;19;20141;-79
2022/04/12 08:58:33;;;;;;;2.75;1.20;;;18.30;99.90;21.00;93724.00;;;;7393242;19;20652;-78
2022/04/12 09:01:28;;;;;;;1.52;1.08;;;18.40;99.90;21.10;93717.00;;;;7391250;19;20509;-80
2022/04/12 09:03:55;;;;;;;1.40;1.20;;;18.30;99.90;21.50;93730.00;;;;7396112;19;20123;-79
2022/04/12 09:06:29;;;;;;;1.92;1.30;;;;;22.50;93749.00;;;;7393082;19;20141;-79
2022/04/12 09:09:16;;;;;;;1.58;1.20;;;19.10;99.90;22.40;93749.00;;;;7390116;19;20141;-76
2022/04/12 09:12:06;;;;;;;3.22;1.10;;;19.30;99.90;22.00;93742.00;;;;7386707;19;20174;-80
2022/04/12 09:14:58;;;;;;;2.03;1.20;;;19.20;99.90;21.90;93752.00;;;;7394869;19;20674;-79
2022/04/12 09:17:37;;;;;;;1.50;1.10;;;19.50;99.90;22.30;93749.00;;;;7392937;19;20117;-79
2022/04/12 09:20:19;;;;;;;1.20;1.02;;;19.80;99.90;22.40;93722.00;;;;7394600;19;20170;-78
2022/04/12 09:22:52;;;;;;;2.58;1.08;;;19.60;99.90;21.00;93736.00;;;;7394387;19;20594;-77
2022/04/12 09:25:20;;;;;;;1.02;0.90;;;19.10;99.90;20.90;93744.00;;;;7394688;19;20154;-78
2022/04/12 09:27:49;;;;;;;1.50;1.20;;;18.40;99.90;20.70;93748.00;;;;7392782;19;20125;-77
2022/04/12 09:30:23;;;;;;;1.38;1.20;;;18.60;99.90;20.40;93735.00;;;;7393098;19;20492;-78
2022/04/12 09:32:50;;;;;;;3.35;1.30;;;18.70;99.90;21.20;93718.00;;;;7393918;19;20628;-79
2022/04/12 09:35:17;;;;;;;2.13;1.30;;;18.80;99.90;20.90;93727.00;;;;7392504;19;20125;-77
2022/04/12 09:37:51;;;;;;;1.63;1.20;;;19.10;99.90;20.70;93721.00;;;;7393948;19;20748;-79
2022/04/12 09:40:18;;;;;;;2.00;1.02;;;19.20;99.90;21.00;93728.00;;;;7393432;19;20141;-79
2022/04/12 09:42:57;;;;;;;2.97;1.20;;;19.40;99.90;20.80;93741.00;;;;7393743;19;20156;-78
2022/04/12 09:45:33;;;;;;;1.98;1.15;;;19.00;99.90;20.50;93733.00;;;;7392651;19;20137;-79
2022/04/12 09:48:05;;;;;;;2.25;1.10;;;19.00;99.90;20.80;93753.00;;;;7392415;19;20143;-78
2022/04/12 09:51:00;;;;;;;2.00;1.33;;;19.10;99.90;21.20;93758.00;;;;7392736;19;20480;-79
2022/04/12 09:53:38;;;;;;;1.75;1.48;;;19.10;99.90;21.00;93757.00;;;;7392563;19;20615;-79
2022/04/12 09:56:34;;;;;;;1.65;1.20;;;19.10;99.90;20.80;93742.00;;;;7393263;19;20152;-79
2022/04/12 09:59:07;;;;;;;3.47;1.17;;;19.20;99.90;21.40;93735.00;;;;7393684;19;20153;-80
2022/04/12 10:01:42;;;;;;;2.08;1.30;;;18.80;99.90;21.70;93737.00;;;;7392740;19;20621;-79
2022/04/12 10:04:11;;;;;;;1.48;1.10;;;19.00;99.90;22.40;93752.00;;;;7392165;19;20140;-79
2022/04/12 10:06:44;;;;;;;1.65;1.10;;;19.40;99.90;22.20;93729.00;;;;7391820;19;20615;-79
2022/04/12 10:09:20;;;;;;;1.65;1.27;;;20.00;99.90;22.70;93738.00;;;;7392236;19;20193;-78
2022/04/12 10:11:53;;;;;;;5.95;1.60;;;20.40;99.90;22.60;93727.00;;;;7390253;19;20169;-79
2022/04/12 10:14:29;;;;;;;1.75;1.15;;;20.30;99.90;22.30;93744.00;;;;7390892;19;20141;-78
2022/04/12 10:16:58;;;;;;;1.63;1.35;;;20.30;99.90;22.40;93716.00;;;;7392446;19;20181;-78
2022/04/12 10:19:25;;;;;;;2.40;1.30;;;20.70;99.90;22.70;93712.00;;;;7391215;19;20196;-79
2022/04/12 10:21:59;;;;;;;2.22;1.20;;;20.70;99.90;23.20;93717.00;;;;7391460;19;20622;-79
2022/04/12 10:24:27;;;;;;;1.40;1.20;;;20.90;99.90;23.10;93736.00;;;;7387128;19;20159;-79
2022/04/12 10:26:56;;;;;;;3.03;1.27;;;20.90;99.90;22.90;93719.00;;;;7390865;19;20197;-80
2022/04/12 10:29:30;;;;;;;2.10;1.60;;;20.80;99.90;22.80;93735.00;;;;7391446;19;20600;-76
2022/04/12 10:32:03;;;;;;;2.00;1.15;;;20.90;99.90;22.30;93711.00;;;;7391176;19;20166;-81
2022/04/12 10:35:00;;;;;;;1.83;1.20;;;21.10;99.90;22.00;93726.00;;;;7389421;19;20137;-79
2022/04/12 10:37:28;;;;;;;2.90;1.20;;;20.90;99.90;21.30;93714.00;;;;7390044;19;20190;-78
2022/04/12 10:40:24;;;;;;;1.25;1.15;;;20.20;99.90;20.90;93720.00;;;;7389110;19;20200;-78
2022/04/12 10:43:02;;;;;;;3.47;1.30;;;19.80;99.90;20.30;93719.00;;;;7392765;19;20129;-78
2022/04/12 10:45:37;;;;;;;2.60;1.50;;;19.60;99.90;20.60;93720.00;;;;7391913;19;20124;-79
2022/04/12 10:48:05;;;;;;;4.57;1.35;;;19.40;99.90;20.80;93695.00;;;;7391921;19;20150;-79
2022/04/12 10:50:41;;;;;;;2.22;1.17;;;19.20;99.90;20.70;93722.00;;;;7391217;19;20145;-79
2022/04/12 10:53:15;;;;;;;4.05;1.60;;;19.30;99.90;21.30;93707.00;;;;7391082;19;20128;-78
2022/04/12 10:55:43;;;;;;;3.97;1.48;;;19.70;99.90;21.70;93723.00;;;;7390841;19;20643;-77
2022/04/12 10:58:30;;;;;;;1.55;1.40;;;19.70;99.90;21.20;93701.00;;;;7389933;19;20125;-79
2022/04/12 11:01:09;;;;;;;2.10;1.42;;;19.80;99.90;21.10;93730.00;;;;7389035;19;20141;-79
2022/04/12 11:03:40;;;;;;;2.78;1.42;;;19.60;99.90;21.10;93725.00;;;;7390059;19;20473;-79
2022/04/12 11:06:29;;;;;;;2.83;1.50;;;19.60;99.90;21.30;93723.00;;;;7389924;19;20125;-79
2022/04/12 11:09:07;;;;;;;3.13;1.50;;;19.90;99.90;21.50;93726.00;;;;7389959;19;20182;-79
2022/04/12 11:11:51;;;;;;;4.93;1.50;;;20.20;99.90;22.10;93704.00;;;;7387445;19;20180;-79
2022/04/12 11:14:38;;;;;;;1.85;1.50;;;20.50;99.90;21.50;93724.00;;;;7390604;19;20462;-79
2022/04/12 11:17:15;;;;;;;2.38;1.50;;;20.20;99.90;21.90;93696.00;;;;7388709;19;20494;-77
2022/04/12 11:19:47;;;;;;;2.95;1.30;;;20.20;99.90;22.00;93714.00;;;;7386563;19;20216;-80
2022/04/12 11:22:23;;;;;;;1.27;1.17;;;20.30;99.90;22.30;93707.00;;;;7388590;19;20204;-78
2022/04/12 11:25:14;;;;;;;3.60;1.40;;;20.40;99.90;21.90;93700.00;;;;7391131;19;20142;-79
2022/04/12 11:27:57;;;;;;;4.45;1.52;;;20.30;99.90;22.00;93712.00;;;;7390642;19;20144;-79
2022/04/12 11:30:26;;;;;;;2.53;1.70;;;20.60;99.90;22.40;93702.00;;;;7389378;19;20129;-79